createdAt,value
2022-09-26T00:02:04.930Z,18.98
2022-09-26T00:07:11.873Z,17.67
2022-09-26T00:12:18.730Z,14.18
2022-09-26T00:17:25.175Z,19.80
2022-09-26T00:22:32.011Z,12.73
2022-09-26T00:27:38.630Z,14.35
2022-09-26T00:32:44.982Z,15.63
2022-09-26T00:37:50.800Z,22.52
2022-09-26T00:43:00.923Z,11.23
2022-09-26T00:48:09.202Z,12.93
2022-09-26T00:53:18.239Z,10.85
2022-09-26T00:59:09.361Z,10.40
2022-09-26T01:04:15.865Z,21.90
2022-09-26T01:09:28.101Z,14.23
2022-09-26T01:14:35.856Z,22.88
2022-09-26T01:19:52.178Z,12.48
2022-09-26T01:25:03.719Z,12.40
2022-09-26T01:30:38.654Z,13.18
2022-09-26T01:35:53.091Z,13.25
2022-09-26T01:41:24.160Z,13.18
2022-09-26T01:46:38.468Z,22.35
2022-09-26T01:52:03.393Z,18.67
2022-09-26T01:57:14.058Z,20.48
2022-09-26T02:02:28.661Z,13.60
2022-09-26T02:07:47.575Z,23.73
2022-09-26T02:12:59.791Z,13.07
2022-09-26T02:18:22.293Z,21.42
2022-09-26T02:23:27.806Z,25.02
2022-09-26T02:28:33.755Z,21.27
2022-09-26T02:33:40.394Z,17.08
2022-09-26T02:44:22.718Z,17.08
2022-09-26T02:50:06.069Z,20.58
2022-09-26T02:55:14.637Z,19.48
2022-09-26T03:00:27.853Z,23.08
2022-09-26T03:05:35.048Z,26.30
2022-09-26T03:10:42.894Z,25.02
2022-09-26T03:15:53.082Z,25.77
2022-09-26T03:21:09.048Z,28.30
2022-09-26T03:26:19.455Z,25.95
2022-09-26T03:31:34.110Z,24.13
2022-09-26T03:36:43.090Z,22.65
2022-09-26T03:41:50.287Z,30.38
2022-09-26T03:47:07.236Z,31.77
2022-09-26T03:52:18.718Z,21.25
2022-09-26T03:57:27.257Z,13.10
2022-09-26T04:02:44.881Z,14.27
2022-09-26T04:08:04.798Z,15.70
2022-09-26T04:13:10.910Z,32.25
2022-09-26T04:23:22.499Z,31.53
2022-09-26T04:28:28.640Z,20.30
2022-09-26T04:33:35.413Z,17.33
2022-09-26T04:38:48.479Z,24.25
2022-09-26T04:43:57.480Z,14.88
2022-09-26T04:49:04.167Z,30.27
2022-09-26T04:54:10.337Z,29.95
2022-09-26T04:59:25.000Z,31.40
2022-09-26T05:04:38.514Z,29.63
2022-09-26T05:09:44.550Z,29.48
2022-09-26T05:14:55.768Z,31.60
2022-09-26T05:20:02.831Z,27.88
2022-09-26T05:25:52.746Z,29.23
2022-09-26T05:30:58.655Z,32.67
2022-09-26T05:36:04.802Z,28.70
2022-09-26T05:41:10.646Z,23.13
2022-09-26T05:46:17.737Z,27.63
2022-09-26T05:51:28.227Z,29.77
2022-09-26T05:56:39.018Z,28.52
2022-09-26T06:01:48.707Z,31.65
2022-09-26T06:07:09.254Z,33.30
2022-09-26T06:12:14.878Z,29.15
2022-09-26T06:17:21.749Z,25.05
2022-09-26T06:22:28.713Z,29.33
2022-09-26T06:27:40.545Z,32.58
2022-09-26T06:32:48.124Z,30.48
2022-09-26T06:38:00.765Z,29.42
2022-09-26T06:43:07.080Z,32.45
2022-09-26T06:48:32.576Z,26.70
2022-09-26T06:53:47.425Z,34.53
2022-09-26T06:58:57.731Z,28.40
2022-09-26T07:04:10.657Z,35.20
2022-09-26T07:09:22.501Z,31.08
2022-09-26T07:14:39.579Z,29.45
2022-09-26T07:19:59.919Z,33.28
2022-09-26T07:25:24.881Z,29.30
2022-09-26T07:30:31.558Z,31.90
2022-09-26T07:35:46.204Z,31.50
2022-09-26T07:40:56.637Z,29.83
2022-09-26T07:46:22.088Z,30.13
2022-09-26T07:56:37.203Z,32.08
2022-09-26T08:02:26.420Z,31.08
2022-09-26T08:07:36.974Z,32.53
2022-09-26T08:12:58.440Z,33.42
2022-09-26T08:18:14.357Z,34.65
2022-09-26T08:23:21.004Z,34.05
2022-09-26T08:28:46.268Z,35.10
2022-09-26T08:38:58.918Z,31.33
2022-09-26T08:45:35.367Z,33.53
2022-09-26T08:51:29.060Z,33.83
2022-09-26T08:56:44.299Z,36.45
2022-09-26T09:01:53.447Z,35.83
2022-09-26T09:07:24.578Z,37.50
2022-09-26T09:12:46.755Z,32.63
2022-09-26T09:18:22.788Z,35.20
2022-09-26T09:24:16.381Z,37.28
2022-09-26T09:29:53.282Z,37.75
2022-09-26T09:35:27.513Z,37.75
2022-09-26T09:40:52.500Z,39.05
2022-09-26T09:46:30.917Z,38.15
2022-09-26T09:51:43.178Z,41.05
2022-09-26T09:57:17.206Z,45.85
2022-09-26T10:02:32.822Z,42.00
2022-09-26T10:07:41.644Z,47.33
2022-09-26T10:13:06.704Z,47.35
2022-09-26T10:18:30.860Z,44.28
2022-09-26T10:23:52.361Z,49.75
2022-09-26T10:29:37.220Z,44.00
2022-09-26T10:34:44.060Z,48.35
2022-09-26T10:40:18.620Z,49.55
2022-09-26T10:45:30.972Z,56.40
2022-09-26T10:51:31.279Z,55.83
2022-09-26T10:56:49.599Z,58.83
2022-09-26T11:02:00.955Z,63.30
2022-09-26T11:07:12.416Z,63.55
2022-09-26T11:12:44.156Z,60.57
2022-09-26T11:17:55.618Z,63.47
2022-09-26T11:23:08.431Z,67.78
2022-09-26T11:28:21.123Z,63.97
2022-09-26T11:33:51.567Z,67.43
2022-09-26T11:39:40.291Z,68.50
2022-09-26T11:45:03.076Z,70.35
2022-09-26T11:50:41.677Z,73.22
2022-09-26T11:56:32.131Z,75.55
2022-09-26T12:02:10.745Z,70.00
2022-09-26T12:07:28.826Z,65.55
2022-09-26T12:12:49.738Z,66.35
2022-09-26T12:18:15.292Z,69.97
2022-09-26T12:23:50.517Z,77.10
2022-09-26T12:29:17.648Z,74.88
2022-09-26T12:34:57.103Z,84.30
2022-09-26T12:40:25.096Z,89.80
2022-09-26T12:45:56.829Z,84.22
2022-09-26T12:51:32.853Z,84.68
2022-09-26T12:56:44.961Z,78.95
2022-09-26T13:02:09.034Z,83.95
2022-09-26T13:07:31.361Z,78.13
2022-09-26T13:13:05.734Z,78.33
2022-09-26T13:18:35.347Z,75.20
2022-09-26T13:23:49.327Z,79.60
2022-09-26T13:29:23.694Z,68.93
2022-09-26T13:34:39.830Z,66.18
2022-09-26T13:40:04.775Z,75.90
2022-09-26T13:45:51.993Z,74.47
2022-09-26T13:51:20.290Z,79.30
2022-09-26T13:56:39.049Z,95.40
2022-09-26T14:02:22.122Z,97.65
2022-09-26T14:07:58.734Z,94.75
2022-09-26T14:13:12.656Z,94.40
2022-09-26T14:18:59.196Z,89.82
2022-09-26T14:24:30.444Z,94.63
2022-09-26T14:29:48.468Z,93.00
2022-09-26T14:35:02.301Z,90.65
2022-09-26T14:40:29.759Z,89.68
2022-09-26T14:45:39.745Z,89.55
2022-09-26T14:50:50.552Z,89.80
2022-09-26T14:56:01.010Z,90.38
2022-09-26T15:01:30.644Z,88.70
2022-09-26T15:06:44.143Z,86.25
2022-09-26T15:12:01.770Z,90.38
2022-09-26T15:17:09.080Z,91.95
2022-09-26T15:22:22.008Z,91.85
2022-09-26T15:27:33.528Z,93.35
2022-09-26T15:32:40.335Z,91.47
2022-09-26T15:37:47.978Z,91.10
2022-09-26T15:43:24.240Z,88.97
2022-09-26T15:48:35.711Z,89.15
2022-09-26T15:54:07.151Z,87.05
2022-09-26T15:59:54.592Z,88.90
2022-09-26T16:05:00.638Z,82.80
2022-09-26T16:10:08.691Z,88.35
2022-09-26T16:15:32.743Z,88.03
2022-09-26T16:20:38.822Z,88.20
2022-09-26T16:25:51.654Z,92.90
2022-09-26T16:31:00.807Z,89.38
2022-09-26T16:36:16.793Z,93.80
2022-09-26T16:47:04.244Z,87.28
2022-09-26T16:52:28.535Z,87.65
2022-09-26T16:57:37.287Z,84.55
2022-09-26T17:02:43.841Z,85.07
2022-09-26T17:07:52.116Z,82.75
2022-09-26T17:12:58.584Z,80.65
2022-09-26T17:18:10.009Z,81.78
2022-09-26T17:23:38.621Z,80.35
2022-09-26T17:28:44.609Z,77.45
2022-09-26T17:33:54.009Z,80.82
2022-09-26T17:39:04.103Z,82.85
2022-09-26T17:44:10.262Z,77.70
2022-09-26T17:49:19.985Z,82.80
2022-09-26T17:54:32.003Z,79.68
2022-09-26T17:59:39.341Z,74.88
2022-09-26T18:04:45.500Z,75.50
2022-09-26T18:09:53.340Z,73.88
2022-09-26T18:15:01.048Z,77.65
2022-09-26T18:20:07.117Z,74.65
2022-09-26T18:25:23.462Z,76.53
2022-09-26T18:30:28.934Z,91.90
2022-09-26T18:35:34.926Z,87.30
2022-09-26T18:40:45.191Z,80.05
2022-09-26T18:45:51.151Z,90.88
2022-09-26T18:56:20.580Z,88.07
2022-09-26T19:01:33.540Z,87.55
2022-09-26T19:06:45.625Z,91.53
2022-09-26T19:11:51.519Z,87.95
2022-09-26T19:16:58.206Z,84.30
2022-09-26T19:22:11.930Z,85.57
2022-09-26T19:27:26.834Z,86.50
2022-09-26T19:32:42.876Z,78.45
2022-09-26T19:37:48.665Z,80.05
2022-09-26T19:42:54.914Z,80.20
2022-09-26T19:48:01.288Z,78.63
2022-09-26T19:53:16.907Z,73.90
2022-09-26T19:58:29.435Z,75.45
2022-09-26T20:03:41.554Z,78.10
2022-09-26T20:08:47.432Z,73.13
2022-09-26T20:14:11.314Z,82.03
2022-09-26T20:19:30.868Z,80.00
2022-09-26T20:24:40.416Z,81.45
2022-09-26T20:30:04.655Z,83.10
2022-09-26T20:35:14.432Z,80.75
2022-09-26T20:40:24.435Z,84.80
2022-09-26T20:45:36.300Z,83.63
2022-09-26T20:50:42.277Z,79.43
2022-09-26T20:55:48.906Z,74.78
2022-09-26T21:00:55.055Z,76.22
2022-09-26T21:06:00.896Z,73.95
2022-09-26T21:11:06.454Z,79.47
2022-09-26T21:16:20.599Z,78.78
2022-09-26T21:21:32.450Z,79.00
2022-09-26T21:26:54.932Z,74.70
2022-09-26T21:32:06.082Z,79.32
2022-09-26T21:37:13.482Z,78.90
2022-09-26T21:42:19.756Z,75.60
2022-09-26T21:47:26.352Z,75.22
2022-09-26T21:52:38.742Z,73.45
2022-09-26T21:57:48.375Z,69.18
2022-09-26T22:02:56.728Z,56.72
2022-09-26T22:08:03.553Z,50.10
2022-09-26T22:13:09.427Z,49.53
2022-09-26T22:18:15.499Z,68.80
2022-09-26T22:23:21.330Z,46.58
2022-09-26T22:28:27.768Z,59.13
2022-09-26T22:33:34.159Z,68.20
2022-09-26T22:38:42.208Z,64.38
2022-09-26T22:43:50.837Z,66.57
2022-09-26T22:48:58.290Z,55.63
2022-09-26T22:54:04.649Z,60.03
2022-09-26T22:59:10.363Z,31.15
2022-09-26T23:04:17.332Z,58.67
2022-09-26T23:09:23.599Z,38.83
2022-09-26T23:14:29.844Z,53.25
2022-09-26T23:19:36.328Z,32.80
2022-09-26T23:24:41.869Z,41.85
2022-09-26T23:29:47.796Z,53.15
2022-09-26T23:34:53.960Z,38.70
2022-09-26T23:40:00.201Z,30.10
2022-09-26T23:45:07.102Z,54.30
2022-09-26T23:50:13.172Z,47.85
2022-09-26T23:55:19.255Z,54.38
